METAR Data
IDs: Format: Raw Decoded Include TAF

Data at: 1410 UTC 22 Apr 2021

KPIA 221354Z 28008G15KT 10SM BKN065 07/M06 A3019 RMK AO2 SLP226 T00671056